Time;durP1;ratioP1;P1;durP2;ratioP2;P2;SDS_P1;SDS_P2;PMS_P1;PMS_P2;Temp;Humidity;BMP_temperature;BMP_pressure;BME280_temperature;BME280_humidity;BME280_pressure;Samples;Min_cycle;Max_cycle;Signal;HPM_P1;HPM_P2
2022/07/12 00:01:38;;;;;;;26.52;12.07;;;;;;;29.08;73.12;100436.63;4962801;28;69596;-34
2022/07/12 00:04:09;;;;;;;19.05;10.90;;;;;;;29.11;73.28;100444.28;4955963;28;65341;-35
2022/07/12 00:06:40;;;;;;;22.27;10.95;;;;;;;29.14;73.99;100439.28;4958189;28;71465;-35
2022/07/12 00:09:11;;;;;;;23.17;11.30;;;;;;;29.21;73.42;100455.44;4956456;28;66691;-35
2022/07/12 00:11:42;;;;;;;21.38;11.13;;;;;;;29.23;74.69;100458.75;5021918;28;70029;-36
2022/07/12 00:14:13;;;;;;;20.75;10.20;;;;;;;29.27;75.83;100459.13;4957189;28;65552;-37
2022/07/12 00:16:44;;;;;;;17.23;10.18;;;;;;;29.28;75.48;100466.19;4956220;28;69338;-34
2022/07/12 00:19:15;;;;;;;16.30;9.27;;;;;;;29.34;74.38;100476.97;4957097;28;65996;-35
2022/07/12 00:21:46;;;;;;;11.80;6.22;;;;;;;29.30;74.43;100475.72;4961980;28;70112;-35
2022/07/12 00:24:16;;;;;;;16.40;6.38;;;;;;;29.28;74.67;100466.19;4954919;28;65821;-33
2022/07/12 00:26:48;;;;;;;15.43;8.73;;;;;;;29.39;74.97;100487.94;4955133;28;69170;-33
2022/07/12 00:29:19;;;;;;;;;;;;;;;29.12;76.43;100483.78;5024131;28;66117;-33
2022/07/12 00:31:50;;;;;;;17.02;9.63;;;;;;;29.12;74.49;100441.38;4955388;28;70211;-33
2022/07/12 00:34:21;;;;;;;14.43;9.18;;;;;;;29.40;74.83;100492.28;4957258;28;67499;-33
2022/07/12 00:36:52;;;;;;;13.30;7.90;;;;;;;29.46;74.34;100495.97;4956505;28;69725;-34
2022/07/12 00:39:22;;;;;;;13.70;7.40;;;;;;;29.46;73.91;100505.97;4953326;28;66889;-34
2022/07/12 00:41:53;;;;;;;10.27;6.00;;;;;;;29.36;73.92;100493.78;4955942;28;70108;-35
2022/07/12 00:44:26;;;;;;;13.73;6.85;;;;;;;29.49;74.12;100516.34;4957652;28;66225;-34
2022/07/12 00:47:01;;;;;;;8.52;5.78;;;;;;;29.43;72.18;100496.44;4958880;28;69868;-34
2022/07/12 00:49:32;;;;;;;4.90;4.50;;;;;;;29.58;72.21;100523.13;5022785;28;65362;-36
2022/07/12 00:52:04;;;;;;;4.78;4.38;;;;;;;29.63;71.49;100517.91;4955403;28;69374;-35
2022/07/12 00:54:35;;;;;;;4.33;3.93;;;;;;;29.65;71.23;100526.63;4957116;28;66110;-35
2022/07/12 00:57:05;;;;;;;4.63;4.25;;;;;;;29.72;71.34;100538.22;5007293;28;69755;-36
2022/07/12 00:59:37;;;;;;;5.53;4.73;;;;;;;29.74;71.20;100536.13;4977065;28;65896;-36
2022/07/12 01:02:08;;;;;;;6.13;4.63;;;;;;;29.79;70.42;100538.16;4959387;28;70184;-35
2022/07/12 01:04:39;;;;;;;6.30;4.70;;;;;;;29.78;70.91;100534.66;4954332;28;66106;-36
2022/07/12 01:07:10;;;;;;;5.18;4.47;;;;;;;29.83;70.11;100545.59;4960786;28;70407;-36
2022/07/12 01:09:41;;;;;;;7.70;4.72;;;;;;;29.59;70.27;100495.06;4959982;28;66052;-35
2022/07/12 01:12:13;;;;;;;4.05;3.65;;;;;;;29.90;69.89;100545.56;4959732;28;71025;-35
2022/07/12 01:14:44;;;;;;;4.70;4.18;;;;;;;29.92;70.05;100548.03;5018505;28;66513;-36
2022/07/12 01:17:16;;;;;;;10.05;4.13;;;;;;;29.94;70.17;100548.63;4959147;28;69706;-36
2022/07/12 01:19:54;;;;;;;4.60;4.18;;;;;;;29.81;69.68;100536.06;4956674;28;66110;-36
2022/07/12 01:22:36;;;;;;;6.18;4.22;;;;;;;29.99;69.52;100565.03;4960522;28;70572;-36
2022/07/12 01:25:07;;;;;;;6.67;4.47;;;;;;;30.00;69.43;100559.38;4954160;28;66554;-36
2022/07/12 01:27:38;;;;;;;9.38;4.75;;;;;;;30.00;69.49;100561.25;4956784;28;69195;-38
2022/07/12 01:30:10;;;;;;;8.90;4.45;;;;;;;30.06;69.65;100563.06;4958828;28;65804;-37
2022/07/12 01:32:41;;;;;;;4.63;4.23;;;;;;;30.05;69.38;100564.13;4957814;28;69730;-36
2022/07/12 01:35:12;;;;;;;6.05;4.95;;;;;;;30.08;69.63;100563.69;4959322;28;66272;-35
2022/07/12 01:37:44;;;;;;;10.07;4.53;;;;;;;29.72;69.79;100500.38;5026866;28;69764;-36
2022/07/12 01:40:16;;;;;;;5.95;4.13;;;;;;;29.26;69.74;100442.09;4957764;28;66630;-35
2022/07/12 01:42:48;;;;;;;4.18;3.63;;;;;;;29.67;69.24;100484.00;4957824;28;70116;-36
2022/07/12 01:45:19;;;;;;;4.00;3.60;;;;;;;30.14;69.38;100551.97;4957558;28;65719;-38
2022/07/12 01:47:51;;;;;;;8.40;4.20;;;;;;;30.15;69.13;100559.06;4958349;28;69583;-38
2022/07/12 01:50:22;;;;;;;5.22;4.13;;;;;;;30.16;68.91;100566.13;4957843;28;65144;-37
2022/07/12 01:52:53;;;;;;;4.78;3.92;;;;;;;30.08;68.77;100539.34;4957901;28;70100;-35
2022/07/12 01:55:25;;;;;;;4.77;4.27;;;;;;;30.11;68.59;100563.25;4960165;28;66035;-36
2022/07/12 01:57:55;;;;;;;;;;;;;;;29.85;69.70;100569.72;4958729;28;70108;-35
2022/07/12 02:00:27;;;;;;;9.40;3.90;;;;;;;30.19;68.74;100576.47;4956927;28;67634;-36
2022/07/12 02:02:58;;;;;;;5.53;3.50;;;;;;;30.19;68.65;100567.53;4953253;28;70180;-36
2022/07/12 02:05:29;;;;;;;4.13;3.80;;;;;;;30.23;68.52;100566.09;4953653;28;65930;-36
2022/07/12 02:08:00;;;;;;;7.55;3.78;;;;;;;30.24;68.45;100567.75;4958191;28;69767;-37
2022/07/12 02:10:31;;;;;;;6.22;3.47;;;;;;;30.15;67.84;100561.75;4956449;28;66339;-36
2022/07/12 02:13:05;;;;;;;5.50;3.40;;;;;;;30.29;67.88;100570.59;4958190;28;69222;-36
2022/07/12 02:15:36;;;;;;;4.80;3.53;;;;;;;30.26;68.11;100566.47;4958654;28;65466;-37
2022/07/12 02:18:07;;;;;;;8.30;3.53;;;;;;;30.12;67.55;100548.69;4958832;28;69393;-35
2022/07/12 02:20:38;;;;;;;4.32;3.78;;;;;;;30.25;67.38;100558.56;5021935;28;65607;-36
2022/07/12 02:23:09;;;;;;;5.03;3.83;;;;;;;30.30;67.71;100569.53;4959054;28;69946;-36
2022/07/12 02:25:40;;;;;;;4.75;3.72;;;;;;;30.32;67.96;100570.16;4960172;28;65802;-35
2022/07/12 02:28:11;;;;;;;3.73;3.43;;;;;;;30.21;67.67;100555.44;4956013;28;70099;-36
2022/07/12 02:30:42;;;;;;;3.78;3.40;;;;;;;30.32;67.51;100563.91;4956634;28;66352;-38
2022/07/12 02:33:16;;;;;;;4.65;3.97;;;;;;;30.31;67.87;100563.06;4959403;28;69454;-35
2022/07/12 02:35:47;;;;;;;6.43;3.95;;;;;;;30.32;67.90;100564.75;5016046;28;65857;-35
2022/07/12 02:38:20;;;;;;;5.10;3.83;;;;;;;30.30;67.87;100550.59;4954503;28;69667;-37
2022/07/12 02:40:53;;;;;;;4.07;3.47;;;;;;;30.26;67.35;100538.59;4952769;28;66269;-37
2022/07/12 02:43:31;;;;;;;3.65;3.22;;;;;;;30.31;67.44;100548.72;4950496;28;70630;-35
2022/07/12 02:46:12;;;;;;;6.20;3.35;;;;;;;30.35;67.04;100552.66;4959183;28;65509;-37
2022/07/12 02:48:43;;;;;;;3.87;2.97;;;;;;;30.37;67.73;100553.22;4954445;28;70231;-34
2022/07/12 02:51:14;;;;;;;4.50;3.50;;;;;;;30.28;67.64;100536.47;4957788;28;65482;-35
2022/07/12 02:53:44;;;;;;;6.03;3.42;;;;;;;30.40;67.20;100556.34;4957686;28;69158;-39
2022/07/12 02:56:15;;;;;;;3.78;3.33;;;;;;;30.42;67.18;100547.97;4958125;28;66145;-36
2022/07/12 02:58:46;;;;;;;4.32;3.92;;;;;;;30.43;67.16;100545.06;5013101;28;69770;-37
2022/07/12 03:01:17;;;;;;;7.90;3.70;;;;;;;30.34;67.12;100545.56;4949521;28;65256;-35
2022/07/12 03:03:48;;;;;;;3.72;3.33;;;;;;;30.46;67.22;100541.91;4958534;28;71250;-36
2022/07/12 03:06:19;;;;;;;3.85;3.53;;;;;;;30.36;67.46;100516.41;4959624;28;66187;-37
2022/07/12 03:08:50;;;;;;;3.50;3.00;;;;;;;30.32;66.81;100504.41;4953749;28;68874;-36
2022/07/12 03:11:21;;;;;;;4.38;3.50;;;;;;;30.49;67.37;100527.09;4957234;28;66492;-37
2022/07/12 03:13:51;;;;;;;4.32;3.88;;;;;;;30.51;67.03;100530.41;4958278;28;69643;-36
2022/07/12 03:16:23;;;;;;;5.03;3.60;;;;;;;30.50;66.90;100523.31;4956119;28;65175;-36
2022/07/12 03:18:54;;;;;;;3.70;3.05;;;;;;;30.52;66.79;100521.22;4956625;28;70168;-36
2022/07/12 03:21:24;;;;;;;4.20;3.45;;;;;;;30.52;66.96;100518.50;4952893;28;66711;-36
2022/07/12 03:23:55;;;;;;;3.78;3.30;;;;;;;30.56;66.95;100514.28;4951593;28;70507;-35
2022/07/12 03:26:26;;;;;;;3.58;3.15;;;;;;;30.47;67.35;100502.13;4954989;28;66901;-36
2022/07/12 03:29:00;;;;;;;3.73;3.33;;;;;;;30.56;66.84;100519.69;4956216;28;69664;-36
2022/07/12 03:31:31;;;;;;;4.60;3.30;;;;;;;30.55;66.79;100509.94;5024099;28;66148;-36
2022/07/12 03:34:03;;;;;;;3.60;2.97;;;;;;;30.58;66.93;100514.06;4958872;28;69120;-36
2022/07/12 03:36:33;;;;;;;5.47;3.30;;;;;;;30.57;66.79;100493.47;4958675;28;66377;-36
2022/07/12 03:39:04;;;;;;;4.90;3.10;;;;;;;30.54;66.66;100491.22;4950981;28;70287;-36
2022/07/12 03:41:35;;;;;;;4.47;3.58;;;;;;;30.60;67.13;100491.13;4958771;28;66406;-36
2022/07/12 03:44:08;;;;;;;7.72;3.08;;;;;;;30.65;66.88;100491.28;4958264;28;70052;-36
2022/07/12 03:46:39;;;;;;;3.88;3.20;;;;;;;30.67;67.17;100489.19;4956002;28;65568;-37
2022/07/12 03:49:10;;;;;;;4.75;3.00;;;;;;;30.66;66.82;100471.25;5025047;28;70514;-35
2022/07/12 03:51:41;;;;;;;3.72;3.13;;;;;;;30.74;66.76;100475.53;4955437;28;65828;-36
2022/07/12 03:54:11;;;;;;;3.10;2.78;;;;;;;30.74;66.00;100464.72;5017502;28;69782;-36
2022/07/12 03:59:31;;;;;;;4.57;3.13;;;;;;;30.82;66.28;100455.47;4958428;28;69999;-36
2022/07/12 04:02:07;;;;;;;5.57;2.65;;;;;;;30.84;66.03;100458.75;4959276;28;66542;-38
2022/07/12 04:04:38;;;;;;;3.20;2.65;;;;;;;30.88;65.82;100457.25;4958021;28;70311;-36
2022/07/12 04:07:10;;;;;;;4.75;3.05;;;;;;;30.87;65.86;100463.72;4957768;28;66798;-35
2022/07/12 04:09:40;;;;;;;2.97;2.55;;;;;;;30.82;65.43;100447.34;4956291;28;68896;-36
2022/07/12 04:12:11;;;;;;;3.87;2.50;;;;;;;30.91;66.01;100454.09;4954469;28;66527;-37
2022/07/12 04:14:42;;;;;;;3.13;2.78;;;;;;;30.82;65.39;100428.41;4954601;28;69162;-37
2022/07/12 04:17:14;;;;;;;3.10;2.38;;;;;;;30.94;65.97;100449.03;4957469;28;66081;-36
2022/07/12 04:19:45;;;;;;;2.50;2.17;;;;;;;30.98;65.68;100449.41;4955817;28;70039;-36
2022/07/12 04:22:18;;;;;;;4.28;2.60;;;;;;;31.02;65.74;100441.63;4956955;28;66615;-36
2022/07/12 04:24:49;;;;;;;2.83;2.63;;;;;;;30.99;65.24;100445.63;4945805;28;69919;-37
2022/07/12 04:27:21;;;;;;;3.88;2.33;;;;;;;30.96;65.54;100429.84;4952828;28;65334;-37
2022/07/12 04:29:51;;;;;;;2.42;2.15;;;;;;;31.02;65.85;100442.47;4956148;28;69947;-35
2022/07/12 04:32:27;;;;;;;2.47;1.77;;;;;;;31.03;65.39;100427.03;4945367;28;65482;-36
2022/07/12 04:34:58;;;;;;;3.75;2.05;;;;;;;31.07;65.35;100430.94;4955426;28;70207;-35
2022/07/12 04:37:28;;;;;;;4.47;2.42;;;;;;;31.09;65.66;100434.22;5020897;28;65861;-37
2022/07/12 04:39:59;;;;;;;2.75;2.00;;;;;;;31.10;65.52;100425.88;4950289;28;69512;-35
2022/07/12 04:42:30;;;;;;;2.50;2.17;;;;;;;31.06;65.19;100413.84;4959634;28;66772;-37
2022/07/12 04:45:01;;;;;;;2.10;1.90;;;;;;;31.07;65.29;100399.25;4960349;28;70544;-36
2022/07/12 04:47:36;;;;;;;3.50;2.40;;;;;;;30.80;64.82;100362.81;4958896;28;66513;-37
2022/07/12 04:50:08;;;;;;;4.78;2.25;;;;;;;31.20;65.11;100413.63;4952948;28;69942;-36
2022/07/12 04:52:38;;;;;;;2.10;1.88;;;;;;;31.19;64.79;100420.13;4954737;28;64903;-38
2022/07/12 04:55:10;;;;;;;2.28;1.70;;;;;;;31.21;64.75;100420.72;4953141;28;69889;-36
2022/07/12 04:57:41;;;;;;;2.92;2.08;;;;;;;31.24;65.03;100409.41;5023073;28;66806;-40
2022/07/12 05:00:13;;;;;;;2.63;2.17;;;;;;;31.13;64.94;100386.66;4957864;28;70968;-38
2022/07/12 05:02:43;;;;;;;;;;;;;;;30.94;65.26;100396.75;4953953;28;65362;-36
2022/07/12 05:05:14;;;;;;;2.78;1.98;;;;;;;31.19;64.97;100382.19;4955768;28;70185;-35
2022/07/12 05:07:45;;;;;;;2.33;1.90;;;;;;;31.23;64.78;100369.81;4951782;28;66775;-36
2022/07/12 05:10:16;;;;;;;2.77;2.30;;;;;;;31.26;64.48;100369.31;4952412;28;69900;-37
2022/07/12 05:12:47;;;;;;;2.55;2.22;;;;;;;31.36;64.94;100386.69;4956115;28;66486;-35
2022/07/12 05:15:18;;;;;;;2.53;1.80;;;;;;;31.36;64.36;100369.59;4954509;28;70287;-36
2022/07/12 05:17:49;;;;;;;2.05;1.83;;;;;;;31.33;64.62;100375.47;4960610;28;66953;-37
2022/07/12 05:20:20;;;;;;;1.90;1.70;;;;;;;31.33;64.24;100361.91;4960288;28;70292;-37
2022/07/12 05:22:51;;;;;;;2.60;1.90;;;;;;;31.09;64.54;100307.75;4952317;28;66858;-36
2022/07/12 05:25:23;;;;;;;3.25;1.60;;;;;;;31.43;64.54;100359.50;4959245;28;69806;-40
2022/07/12 05:27:53;;;;;;;3.70;2.20;;;;;;;31.47;64.32;100354.41;4952905;28;65212;-38
2022/07/12 05:30:25;;;;;;;3.03;1.85;;;;;;;31.48;64.34;100353.34;4957184;28;70801;-37
2022/07/12 05:32:56;;;;;;;2.65;2.00;;;;;;;31.43;64.49;100336.97;5025388;28;66007;-38
2022/07/12 05:35:27;;;;;;;4.65;2.20;;;;;;;31.43;64.67;100345.94;4955231;28;71498;-36
2022/07/12 05:37:58;;;;;;;4.38;2.22;;;;;;;31.48;64.19;100351.47;4955028;28;66720;-36
2022/07/12 05:40:29;;;;;;;2.65;2.25;;;;;;;31.55;64.44;100362.19;4951164;28;70664;-36
2022/07/12 05:43:00;;;;;;;2.80;2.25;;;;;;;31.52;63.98;100336.38;5019620;28;65794;-36
2022/07/12 05:45:31;;;;;;;4.65;2.33;;;;;;;31.51;64.18;100333.88;4951029;28;69134;-38
2022/07/12 05:48:02;;;;;;;3.28;1.98;;;;;;;31.58;63.87;100334.59;4949849;28;66170;-38
2022/07/12 05:50:33;;;;;;;2.43;1.67;;;;;;;31.63;64.07;100333.88;4956050;28;69042;-36
2022/07/12 05:53:22;;;;;;;3.97;2.40;;;;;;;31.65;63.72;100340.72;4956981;28;66636;-37
2022/07/12 05:55:54;;;;;;;5.50;1.73;;;;;;;31.23;63.96;100261.41;4955821;28;69125;-38
2022/07/12 05:58:25;;;;;;;3.17;2.00;;;;;;;31.66;63.94;100319.84;4958682;28;66563;-37
2022/07/12 06:00:56;;;;;;;3.78;2.20;;;;;;;31.56;64.01;100310.41;4959441;28;69595;-36
2022/07/12 06:03:26;;;;;;;3.30;2.40;;;;;;;31.69;63.73;100305.81;4956331;28;66312;-36
2022/07/12 06:05:57;;;;;;;2.72;1.83;;;;;;;31.65;63.75;100296.50;5024350;28;68909;-36
2022/07/12 06:08:28;;;;;;;3.13;2.17;;;;;;;31.71;64.07;100298.28;4952546;28;67853;-35
2022/07/12 06:10:59;;;;;;;5.10;1.77;;;;;;;31.67;63.73;100289.78;4956796;28;69009;-37
2022/07/12 06:13:30;;;;;;;3.75;2.03;;;;;;;31.36;63.81;100244.94;5020324;28;65112;-39
2022/07/12 06:16:01;;;;;;;2.75;1.52;;;;;;;31.74;63.64;100295.06;4954348;28;70649;-38
2022/07/12 06:18:35;;;;;;;4.53;1.52;;;;;;;31.76;64.10;100284.78;4953633;28;66498;-40
2022/07/12 06:21:06;;;;;;;2.70;2.05;;;;;;;31.77;63.70;100286.47;4958799;28;70339;-38
2022/07/12 06:23:37;;;;;;;2.92;2.20;;;;;;;31.76;63.83;100285.63;4955060;28;66317;-37
2022/07/12 06:26:07;;;;;;;3.70;2.03;;;;;;;31.77;63.92;100281.84;4954259;28;69080;-37
2022/07/12 06:28:38;;;;;;;3.60;1.92;;;;;;;31.78;63.92;100275.34;4950527;28;66781;-36
2022/07/12 06:31:09;;;;;;;3.65;1.88;;;;;;;31.78;63.85;100275.34;4954860;28;70131;-39
2022/07/12 06:33:40;;;;;;;5.03;2.00;;;;;;;31.78;63.98;100274.53;4950926;28;65220;-37
2022/07/12 06:36:11;;;;;;;5.63;2.83;;;;;;;31.78;63.56;100263.69;4959210;28;69554;-39
2022/07/12 06:38:42;;;;;;;4.90;2.25;;;;;;;31.78;63.63;100259.09;4954980;28;65205;-36
2022/07/12 06:41:17;;;;;;;6.15;2.17;;;;;;;31.74;63.59;100251.69;4946994;28;69996;-34
2022/07/12 06:43:48;;;;;;;7.05;2.00;;;;;;;31.80;63.63;100250.72;4956396;28;66655;-37
2022/07/12 06:46:19;;;;;;;2.60;1.85;;;;;;;31.76;63.50;100233.25;4953852;28;70096;-36
2022/07/12 06:48:50;;;;;;;2.97;1.90;;;;;;;31.79;63.32;100232.81;4958085;28;66256;-37
2022/07/12 06:51:21;;;;;;;6.35;1.98;;;;;;;31.72;63.20;100213.13;4951151;28;70527;-37
2022/07/12 06:53:52;;;;;;;6.37;1.97;;;;;;;31.80;63.34;100229.84;4953394;28;66861;-37
2022/07/12 06:56:23;;;;;;;3.25;1.95;;;;;;;31.80;63.61;100229.03;4951622;28;70525;-38
2022/07/12 06:58:54;;;;;;;5.93;1.90;;;;;;;31.78;63.30;100236.56;4953601;28;65431;-36
2022/07/12 07:01:25;;;;;;;2.08;1.67;;;;;;;31.82;63.64;100235.84;4951046;28;70054;-37
2022/07/12 07:03:56;;;;;;;2.40;1.88;;;;;;;31.81;63.48;100241.50;4952135;28;65472;-36
2022/07/12 07:06:27;;;;;;;2.58;1.60;;;;;;;31.83;63.52;100231.25;4951774;28;69276;-36
2022/07/12 07:08:57;;;;;;;2.55;1.80;;;;;;;31.77;63.55;100213.25;4953613;28;65289;-36
2022/07/12 07:11:28;;;;;;;2.83;1.63;;;;;;;31.80;63.80;100218.19;4956517;28;69350;-37
2022/07/12 07:13:59;;;;;;;2.60;1.80;;;;;;;31.81;63.54;100208.97;4953355;28;65864;-36
2022/07/12 07:16:30;;;;;;;4.18;2.17;;;;;;;31.82;63.70;100202.50;4956307;28;69657;-37
2022/07/12 07:19:02;;;;;;;3.47;1.70;;;;;;;31.80;63.87;100199.19;4957442;28;65697;-36
2022/07/12 07:21:32;;;;;;;;;;;;;;;31.47;64.95;100197.19;4958725;28;69172;-36
2022/07/12 07:24:03;;;;;;;4.43;2.08;;;;;;;31.78;64.25;100193.19;4956704;28;65431;-36
2022/07/12 07:26:34;;;;;;;3.67;2.03;;;;;;;31.78;64.11;100187.75;4956297;28;69976;-37
2022/07/12 07:31:54;;;;;;;3.70;2.08;;;;;;;31.47;63.80;100132.97;4950491;28;70658;-37
2022/07/12 07:34:26;;;;;;;3.70;2.30;;;;;;;31.64;64.13;100153.88;4951355;28;64317;-37
2022/07/12 07:36:57;;;;;;;5.65;3.00;;;;;;;31.75;64.20;100166.56;5019064;28;70009;-37
2022/07/12 07:39:28;;;;;;;7.20;2.40;;;;;;;31.75;63.99;100169.25;4958458;28;65327;-37
2022/07/12 07:41:59;;;;;;;5.20;2.05;;;;;;;31.78;64.23;100166.06;4950795;28;69713;-36
2022/07/12 07:44:29;;;;;;;3.15;2.40;;;;;;;31.79;64.28;100156.88;4952416;28;66271;-38
2022/07/12 07:47:01;;;;;;;;;;;;;;;31.47;65.28;100160.06;4951254;28;69940;-37
2022/07/12 07:49:32;;;;;;;3.72;2.60;;;;;;;31.78;64.48;100166.88;4956969;28;67342;-37
2022/07/12 07:52:03;;;;;;;6.55;2.10;;;;;;;31.82;64.22;100159.09;4951078;28;70595;-36
2022/07/12 07:54:34;;;;;;;5.72;2.17;;;;;;;31.83;64.48;100161.56;4949197;28;66031;-36
2022/07/12 07:57:05;;;;;;;3.80;2.40;;;;;;;31.82;64.56;100162.63;4951286;28;68838;-38
2022/07/12 07:59:36;;;;;;;4.85;1.80;;;;;;;31.82;64.49;100159.91;4954740;28;66325;-37
2022/07/12 08:02:11;;;;;;;3.53;2.13;;;;;;;31.85;64.31;100155.91;4954921;28;69256;-37
2022/07/12 08:04:42;;;;;;;3.33;2.10;;;;;;;31.82;64.49;100150.97;4947984;28;65878;-37
2022/07/12 08:07:13;;;;;;;3.60;1.90;;;;;;;31.82;64.45;100157.22;4955354;28;70210;-37
2022/07/12 08:10:04;;;;;;;2.77;2.07;;;;;;;31.82;64.31;100148.25;4954736;28;65848;-37
2022/07/12 08:12:35;;;;;;;3.13;1.90;;;;;;;31.77;64.80;100148.16;4956152;28;69962;-37
2022/07/12 08:15:06;;;;;;;3.92;2.25;;;;;;;31.68;64.46;100123.34;4948326;28;66654;-37
2022/07/12 08:17:37;;;;;;;3.15;2.10;;;;;;;31.81;64.57;100139.28;4946723;28;69805;-36
2022/07/12 08:20:15;;;;;;;4.60;2.28;;;;;;;31.82;64.68;100140.94;5014894;28;65912;-36
2022/07/12 08:23:06;;;;;;;2.65;1.85;;;;;;;31.81;64.66;100146.59;4947203;28;69784;-36
2022/07/12 08:25:37;;;;;;;2.43;1.90;;;;;;;31.76;65.02;100141.06;4957140;28;65801;-37
2022/07/12 08:28:09;;;;;;;2.35;1.83;;;;;;;31.69;64.88;100140.41;4955354;28;69977;-36
2022/07/12 08:30:39;;;;;;;2.72;2.30;;;;;;;31.55;64.88;100119.03;4956401;28;66502;-37
2022/07/12 08:33:15;;;;;;;3.78;3.00;;;;;;;31.77;65.39;100153.59;4954581;28;69581;-38
2022/07/12 08:35:46;;;;;;;3.17;2.67;;;;;;;31.70;65.64;100158.31;4954234;28;66223;-36
2022/07/12 08:38:16;;;;;;;4.70;3.25;;;;;;;31.74;65.96;100159.50;4952435;28;70128;-36
2022/07/12 08:40:47;;;;;;;3.90;2.90;;;;;;;31.72;65.93;100156.19;4956229;28;66356;-36
2022/07/12 08:43:18;;;;;;;3.20;2.83;;;;;;;31.69;65.76;100153.97;5017444;28;69575;-38
2022/07/12 08:45:51;;;;;;;5.13;2.85;;;;;;;31.67;66.03;100153.38;4956377;28;65865;-37
2022/07/12 08:48:22;;;;;;;2.63;2.40;;;;;;;31.61;65.72;100139.72;4952672;28;70297;-37
2022/07/12 08:51:07;;;;;;;2.95;2.30;;;;;;;31.48;65.90;100129.22;4951775;28;66137;-36
2022/07/12 08:53:39;;;;;;;2.85;2.58;;;;;;;31.65;66.17;100155.50;4954311;28;69742;-37
2022/07/12 08:56:33;;;;;;;2.72;2.53;;;;;;;31.52;66.07;100152.03;5017242;28;65207;-36
2022/07/12 08:59:18;;;;;;;2.83;2.50;;;;;;;31.55;66.33;100161.56;5014354;28;69192;-37
2022/07/12 09:01:51;;;;;;;2.83;2.42;;;;;;;31.59;65.88;100147.31;4956116;28;65361;-37
2022/07/12 09:04:25;;;;;;;3.35;2.38;;;;;;;31.62;65.96;100162.25;4949304;28;68991;-36
2022/07/12 09:06:56;;;;;;;3.10;2.35;;;;;;;31.49;66.26;100138.97;4953801;28;65610;-36
2022/07/12 09:09:35;;;;;;;2.72;2.42;;;;;;;31.24;66.08;100101.34;4952449;28;70241;-37
2022/07/12 09:12:06;;;;;;;3.30;2.33;;;;;;;31.56;66.34;100161.31;4944618;28;66077;-36
2022/07/12 09:14:37;;;;;;;2.88;2.47;;;;;;;31.54;66.44;100158.03;4955703;28;69448;-36
2022/07/12 09:17:13;;;;;;;2.95;2.63;;;;;;;31.43;66.41;100142.66;5029454;28;66561;-35
2022/07/12 09:19:58;;;;;;;2.90;2.60;;;;;;;31.50;66.32;100170.44;4954811;28;69237;-36
2022/07/12 09:22:29;;;;;;;4.57;3.58;;;;;;;31.49;66.64;100152.53;4957083;28;65779;-37
2022/07/12 09:25:15;;;;;;;4.15;3.75;;;;;;;31.43;66.71;100148.06;4958694;28;69549;-36
2022/07/12 09:27:52;;;;;;;4.20;3.90;;;;;;;31.48;66.82;100161.72;4952562;28;66684;-36
2022/07/12 09:30:28;;;;;;;8.15;4.47;;;;;;;31.45;66.75;100156.75;4957420;28;70107;-37
2022/07/12 09:36:10;;;;;;;;;;;;;;;31.07;68.38;100166.28;4956306;28;70092;-36
2022/07/12 09:38:54;;;;;;;4.38;4.00;;;;;;;31.38;67.64;100172.38;4955635;28;65615;-37
2022/07/12 09:41:25;;;;;;;8.23;4.25;;;;;;;31.40;67.04;100181.09;5025610;28;69940;-36
2022/07/12 09:43:57;;;;;;;4.50;4.20;;;;;;;30.77;67.45;100068.13;4960051;28;66882;-36
2022/07/12 09:46:28;;;;;;;;;;;;;;;31.03;68.25;100169.69;4956451;28;70179;-38
2022/07/12 09:48:59;;;;;;;5.65;4.47;;;;;;;31.20;67.26;100158.94;4953146;28;65790;-37
2022/07/12 09:51:32;;;;;;;4.65;4.22;;;;;;;30.91;67.57;100108.25;4959106;28;69426;-37
2022/07/12 09:54:07;;;;;;;4.65;4.28;;;;;;;30.97;67.56;100117.31;4955868;28;65282;-36
2022/07/12 09:56:43;;;;;;;5.20;4.68;;;;;;;31.37;67.61;100187.81;4957501;28;69670;-36
2022/07/12 09:59:20;;;;;;;4.28;3.83;;;;;;;31.10;67.57;100144.13;5021443;28;66712;-36
2022/07/12 10:01:55;;;;;;;5.82;3.80;;;;;;;30.97;67.25;100125.44;4956533;28;70308;-36
2022/07/12 10:04:32;;;;;;;4.80;3.67;;;;;;;31.03;67.40;100135.31;4957578;28;66447;-37
2022/07/12 10:07:03;;;;;;;3.95;3.55;;;;;;;31.36;67.77;100204.28;4955121;28;70201;-36
2022/07/12 10:09:36;;;;;;;3.80;3.50;;;;;;;30.94;67.08;100134.03;4953532;28;66412;-39
2022/07/12 10:12:09;;;;;;;4.38;3.55;;;;;;;31.29;67.31;100201.69;4952308;28;70191;-37
2022/07/12 10:14:41;;;;;;;3.58;3.28;;;;;;;31.37;67.61;100214.06;4956082;28;66685;-40
2022/07/12 10:17:13;;;;;;;;;;;;;;;31.01;68.84;100224.13;5022747;28;69834;-37
2022/07/12 10:19:44;;;;;;;3.05;2.85;;;;;;;31.29;68.04;100219.84;4958843;28;66859;-37
2022/07/12 10:22:22;;;;;;;3.20;3.00;;;;;;;30.98;68.73;100173.16;4956048;28;70285;-37
2022/07/12 10:24:53;;;;;;;4.68;3.28;;;;;;;31.22;67.83;100205.59;4959793;28;65584;-37
2022/07/12 10:27:28;;;;;;;3.58;3.28;;;;;;;31.33;67.60;100239.97;4956352;28;70515;-37
2022/07/12 10:30:17;;;;;;;3.60;3.30;;;;;;;30.80;68.02;100170.56;4953550;28;66446;-38
2022/07/12 10:32:50;;;;;;;3.78;3.47;;;;;;;31.32;67.87;100244.56;4958398;28;69777;-37
2022/07/12 10:35:26;;;;;;;3.28;3.00;;;;;;;31.20;67.81;100229.38;4956016;28;65477;-37
2022/07/12 10:38:12;;;;;;;4.43;3.13;;;;;;;31.25;68.16;100259.31;4960263;28;69824;-37
2022/07/12 10:40:44;;;;;;;4.05;3.47;;;;;;;31.24;68.18;100253.06;4958174;28;65823;-37
2022/07/12 10:43:17;;;;;;;3.75;3.40;;;;;;;30.84;69.21;100191.53;4962882;28;70511;-36
2022/07/12 10:45:49;;;;;;;4.45;4.15;;;;;;;30.81;69.67;100215.53;4956325;28;66502;-36
2022/07/12 10:48:23;;;;;;;4.43;4.05;;;;;;;30.63;70.66;100187.47;4956676;28;70332;-36
2022/07/12 10:50:57;;;;;;;4.95;4.38;;;;;;;31.02;70.99;100266.41;4953088;28;66702;-40
2022/07/12 10:53:38;;;;;;;4.97;3.65;;;;;;;30.90;70.78;100247.44;5017808;28;69618;-38
2022/07/12 10:56:19;;;;;;;3.72;3.47;;;;;;;31.04;71.00;100264.28;4950561;28;66174;-36
2022/07/12 10:58:59;;;;;;;3.70;3.40;;;;;;;30.40;69.81;100152.31;4953135;28;69200;-36
2022/07/12 11:01:32;;;;;;;3.22;2.90;;;;;;;30.82;69.30;100217.19;4952271;28;65403;-36
2022/07/12 11:04:10;;;;;;;3.50;3.30;;;;;;;31.19;69.46;100281.94;4953510;28;69961;-36
2022/07/12 11:06:42;;;;;;;3.20;3.00;;;;;;;31.23;69.69;100283.09;4951964;28;66540;-37
2022/07/12 11:09:17;;;;;;;3.95;3.65;;;;;;;31.24;69.57;100285.59;4953157;28;71935;-37
2022/07/12 11:11:49;;;;;;;3.05;2.85;;;;;;;31.24;69.53;100285.59;4954562;28;65712;-38
2022/07/12 11:14:26;;;;;;;3.08;2.85;;;;;;;31.27;69.13;100303.25;4953512;28;70184;-38
2022/07/12 11:16:57;;;;;;;4.10;3.70;;;;;;;31.29;69.36;100303.84;4949899;28;66253;-38
2022/07/12 11:19:30;;;;;;;3.60;3.30;;;;;;;31.06;68.92;100267.56;4956670;28;69857;-38
2022/07/12 11:22:01;;;;;;;3.10;2.90;;;;;;;31.28;69.21;100302.19;4955823;28;66128;-39
2022/07/12 11:24:34;;;;;;;4.45;3.30;;;;;;;31.32;69.15;100308.78;4957485;28;70688;-38
2022/07/12 11:27:06;;;;;;;3.28;2.95;;;;;;;31.32;68.91;100306.91;5020141;28;65173;-37
2022/07/12 11:29:37;;;;;;;5.85;3.22;;;;;;;31.23;69.36;100300.19;4956606;28;69816;-38
2022/07/12 11:32:08;;;;;;;3.30;3.00;;;;;;;31.33;69.60;100321.28;4955866;28;65160;-37
2022/07/12 11:34:40;;;;;;;6.05;3.20;;;;;;;31.24;69.62;100311.88;4956584;28;70093;-37
2022/07/12 11:37:11;;;;;;;5.47;3.25;;;;;;;31.36;69.56;100328.97;4955072;28;66092;-37
2022/07/12 11:39:41;;;;;;;4.88;2.90;;;;;;;31.32;69.83;100336.72;4953238;28;70368;-37
2022/07/12 11:42:12;;;;;;;3.85;3.42;;;;;;;31.31;69.94;100335.03;4954126;28;65768;-43
2022/07/12 11:44:49;;;;;;;4.53;3.35;;;;;;;30.99;70.02;100283.13;4950158;28;69923;-38
2022/07/12 11:47:22;;;;;;;6.35;3.17;;;;;;;31.31;69.64;100342.34;4954801;28;65439;-36
2022/07/12 11:49:55;;;;;;;3.33;3.13;;;;;;;31.06;69.78;100299.25;4953032;28;69915;-37
2022/07/12 11:52:26;;;;;;;5.32;3.28;;;;;;;31.33;69.73;100348.38;4951341;28;66180;-38
2022/07/12 11:54:57;;;;;;;3.67;3.03;;;;;;;31.37;70.08;100349.56;4955281;28;70937;-38
2022/07/12 11:57:29;;;;;;;4.95;3.30;;;;;;;31.36;70.01;100356.88;4952193;28;65846;-37
2022/07/12 12:00:20;;;;;;;3.83;3.60;;;;;;;31.31;71.06;100361.31;4953384;28;70252;-38